CheckWX is a tool to help pilots better visualize weather data.  It is not intended as a substitute for an official pre-flight weather briefing.

05:18:48 UTC

KSUU TAF
Travis AFB Airport
Fairfield, California, USA
TAF KSUU 240301Z 2403/2509 21006KT 9000 BR FEW015 BKN030 BKN090 QNH2927INS BECMG 2408/2409 22006KT 4800 BR SCT015 OVC030 QNH3024INS BECMG 2414/2415 23006KT 4800 BR FEW007 SCT015 OVC030 QNH3019INS BECMG 2420/2421 22009KT 9999 NSW OVC030 QNH3011INS BECMG 2504/2505 VRB06KT 4800 BR SCT010 OVC030 QNH3007INS TX14/2423Z TN03/2411Z

Feb-24@
03:00 UTC

Feb-24 @ 03:00 UTC

Feb-24@
08:00 UTC

Feb-24 @ 08:00 UTC

TAF KSUU 240301Z 2403/2509 21006KT 9000 BR FEW015 BKN030 BKN090 QNH2927INS
Wind
  • 210° at 6 KTS
Conditions
Mist
Cloud Levels
  • Few at 1,500' AGL
  • Broken at 3,000' AGL
  • Broken at 9,000' AGL

Feb-24@
08:00 UTC

Feb-24 @ 08:00 UTC

Feb-24@
14:00 UTC

Feb-24 @ 14:00 UTC

BECMG 2408/2409 22006KT 4800 BR SCT015 OVC030 QNH3024INS

Becoming

Becoming Conditions expected by Sun, Feb 24, 2019 @ 09:00 UTC

Wind
  • 220° at 6 KTS
Conditions
Mist
Cloud Levels
  • Scattered at 1,500' AGL
  • Overcast at 3,000' AGL

Feb-24@
14:00 UTC

Feb-24 @ 14:00 UTC

Feb-24@
20:00 UTC

Feb-24 @ 20:00 UTC

BECMG 2414/2415 23006KT 4800 BR FEW007 SCT015 OVC030 QNH3019INS

Becoming

Becoming Conditions expected by Sun, Feb 24, 2019 @ 15:00 UTC

Wind
  • 230° at 6 KTS
Conditions
Mist
Cloud Levels
  • Few at 700' AGL
  • Scattered at 1,500' AGL
  • Overcast at 3,000' AGL

Feb-24@
20:00 UTC

Feb-24 @ 20:00 UTC

Feb-25@
04:00 UTC

Feb-25 @ 04:00 UTC

BECMG 2420/2421 22009KT 9999 NSW OVC030 QNH3011INS

Becoming

Becoming Conditions expected by Sun, Feb 24, 2019 @ 21:00 UTC

Wind
  • 220° at 9 KTS
Conditions
No significant weather
Cloud Levels
  • Overcast at 3,000' AGL

Feb-25@
04:00 UTC

Feb-25 @ 04:00 UTC

Feb-25@
09:00 UTC

Feb-25 @ 09:00 UTC

BECMG 2504/2505 VRB06KT 4800 BR SCT010 OVC030 QNH3007INS TX14/2423Z TN03/2411Z

Becoming

Becoming Conditions expected by Mon, Feb 25, 2019 @ 05:00 UTC

Wind
  • Variable at 6 KTS
Conditions
Mist
Cloud Levels
  • Scattered at 1,000' AGL
  • Overcast at 3,000' AGL